Walnut, California
Current Conditions -  °F | °C
As of 11:53 PM on Friday 28 Nov 2014 (Local Time) from KCNO Reporting Station
Clear Clear  
Wind Chill: 10°   Ceiling: Unl
Heat Index: 10°   Visibility: 8mi
Dew Point:   Wind: 3mph
Humidity: 63%   Direction: 340°NNW
Pressure: 29.92"   Gusts: NA
Location:  34.03°N, 117.84°W
Report Text: KCNO 290753Z 34003KT 8SM CLR 10/03 A2992 RMK AO2 SLP127 T01000033 403000044
Loading
Personal Weather Stations






























Interactive Weather Map New forecast layout! Learn more

10-Day Weather Forecast

Advertisements
Track Severe Weather on mobile